Time;durP1;ratioP1;P1;durP2;ratioP2;P2;SDS_P1;SDS_P2;PMS_P1;PMS_P2;Temp;Humidity;BMP_temperature;BMP_pressure;BME280_temperature;BME280_humidity;BME280_pressure;Samples;Min_cycle;Max_cycle;Signal;HPM_P1;HPM_P2
2021/08/20 00:00:30;;;;;;;266.27;250.63;;;;;;;;;;4992733;28;20439;-69
2021/08/20 00:02:57;;;;;;;266.83;251.13;;;;;;;;;;4992664;28;20465;-71
2021/08/20 00:05:24;;;;;;;269.90;254.03;;;;;;;;;;4992950;28;20457;-70
2021/08/20 00:07:51;;;;;;;265.07;249.17;;;;;;;;;;4992826;28;20496;-70
2021/08/20 00:10:19;;;;;;;261.27;245.53;;;;;;;;;;4992182;28;20480;-70
2021/08/20 00:12:47;;;;;;;258.07;242.67;;;;;;;;;;4993176;28;20451;-71
2021/08/20 00:15:14;;;;;;;250.10;234.90;;;;;;;;;;4992952;28;20446;-71
2021/08/20 00:17:42;;;;;;;240.73;225.73;;;;;;;;;;4992745;28;20459;-71
2021/08/20 00:20:09;;;;;;;236.63;222.23;;;;;;;;;;4992705;28;21045;-70
2021/08/20 00:22:37;;;;;;;241.60;226.63;;;;;;;;;;4992364;28;20953;-70
2021/08/20 00:25:04;;;;;;;242.47;227.77;;;;;;;;;;4992626;28;20459;-71
2021/08/20 00:27:33;;;;;;;253.33;237.87;;;;;;;;;;4992498;28;20482;-71
2021/08/20 00:30:00;;;;;;;254.80;239.80;;;;;;;;;;4992786;28;20450;-71
2021/08/20 00:32:27;;;;;;;260.10;244.30;;;;;;;;;;4992197;28;20964;-70
2021/08/20 00:34:54;;;;;;;249.23;233.87;;;;;;;;;;4992423;28;20456;-71
2021/08/20 00:37:21;;;;;;;248.17;232.77;;;;;;;;;;4992228;28;20451;-70
2021/08/20 00:39:48;;;;;;;253.33;238.13;;;;;;;;;;4992518;28;20840;-71
2021/08/20 00:42:15;;;;;;;257.07;241.37;;;;;;;;;;4992466;28;20456;-70
2021/08/20 00:44:44;;;;;;;267.40;251.50;;;;;;;;;;4992286;28;20948;-71
2021/08/20 00:47:11;;;;;;;261.33;245.93;;;;;;;;;;4992180;28;20492;-69
2021/08/20 00:49:38;;;;;;;261.87;246.37;;;;;;;;;;4992507;28;20998;-70
2021/08/20 00:52:06;;;;;;;258.90;243.37;;;;;;;;;;4991962;28;20469;-70
2021/08/20 00:54:33;;;;;;;255.87;240.63;;;;;;;;;;4992360;28;20462;-71
2021/08/20 00:57:00;;;;;;;251.10;236.00;;;;;;;;;;4992218;28;20461;-70
2021/08/20 00:59:27;;;;;;;254.83;239.47;;;;;;;;;;4993803;28;20486;-71
2021/08/20 01:01:56;;;;;;;254.33;239.13;;;;;;;;;;4996006;28;20481;-71
2021/08/20 01:04:23;;;;;;;245.83;230.80;;;;;;;;;;4995628;28;20984;-71
2021/08/20 01:06:50;;;;;;;246.70;231.80;;;;;;;;;;4995742;28;20984;-70
2021/08/20 01:09:20;;;;;;;249.30;234.20;;;;;;;;;;4996120;28;20847;-69
2021/08/20 01:11:47;;;;;;;247.67;232.47;;;;;;;;;;4995900;28;20454;-71
2021/08/20 01:14:16;;;;;;;247.90;232.80;;;;;;;;;;4995899;28;20454;-70
2021/08/20 01:16:43;;;;;;;240.23;225.20;;;;;;;;;;4995457;28;20450;-70
2021/08/20 01:19:12;;;;;;;243.70;228.70;;;;;;;;;;4995628;28;20470;-70
2021/08/20 01:21:39;;;;;;;245.57;230.77;;;;;;;;;;4995568;28;20454;-71
2021/08/20 01:24:06;;;;;;;229.67;215.40;;;;;;;;;;4995723;28;20450;-70
2021/08/20 01:26:35;;;;;;;235.50;220.67;;;;;;;;;;4995825;28;20937;-71
2021/08/20 01:29:02;;;;;;;244.77;229.97;;;;;;;;;;4995603;28;20494;-69
2021/08/20 01:31:29;;;;;;;248.70;233.53;;;;;;;;;;4995382;28;20452;-71
2021/08/20 01:33:56;;;;;;;255.90;240.70;;;;;;;;;;4995268;28;20450;-70
2021/08/20 01:36:24;;;;;;;247.37;232.30;;;;;;;;;;4995526;28;20524;-71
2021/08/20 01:38:52;;;;;;;251.10;236.10;;;;;;;;;;4995339;28;20470;-70
2021/08/20 01:41:20;;;;;;;253.07;237.63;;;;;;;;;;4994886;28;20501;-71
2021/08/20 01:43:49;;;;;;;245.20;230.03;;;;;;;;;;4995426;28;20453;-71
2021/08/20 01:46:16;;;;;;;230.10;215.80;;;;;;;;;;4995558;28;20462;-71
2021/08/20 01:48:47;;;;;;;230.90;216.43;;;;;;;;;;4994818;28;20494;-70
2021/08/20 01:51:14;;;;;;;233.60;219.07;;;;;;;;;;4994938;28;20454;-71
2021/08/20 01:53:41;;;;;;;240.93;226.13;;;;;;;;;;4995065;28;20945;-70
2021/08/20 01:56:13;;;;;;;247.63;232.53;;;;;;;;;;4995117;28;20452;-70
2021/08/20 01:58:40;;;;;;;237.33;222.73;;;;;;;;;;4995026;28;20486;-71
2021/08/20 02:01:08;;;;;;;232.00;217.50;;;;;;;;;;4995107;28;20455;-70
2021/08/20 02:03:35;;;;;;;233.70;219.10;;;;;;;;;;4995072;28;20454;-72
2021/08/20 02:06:03;;;;;;;222.70;209.00;;;;;;;;;;4995021;28;20476;-70
2021/08/20 02:08:30;;;;;;;230.30;216.03;;;;;;;;;;4994721;28;20494;-71
2021/08/20 02:10:57;;;;;;;228.93;214.63;;;;;;;;;;4993541;28;20529;-70
2021/08/20 02:13:24;;;;;;;228.83;214.63;;;;;;;;;;4994934;28;20450;-71
2021/08/20 02:15:51;;;;;;;215.80;202.10;;;;;;;;;;4995249;28;20454;-71
2021/08/20 02:18:20;;;;;;;209.67;196.13;;;;;;;;;;4994332;28;20849;-71
2021/08/20 02:20:47;;;;;;;210.00;196.23;;;;;;;;;;4994249;28;20950;-70
2021/08/20 02:23:14;;;;;;;205.13;191.63;;;;;;;;;;4994821;28;20454;-71
2021/08/20 02:25:42;;;;;;;195.90;183.10;;;;;;;;;;4994263;28;20459;-70
2021/08/20 02:28:09;;;;;;;186.27;173.57;;;;;;;;;;4994278;28;20490;-71
2021/08/20 02:30:36;;;;;;;183.60;171.00;;;;;;;;;;4994578;28;20461;-70
2021/08/20 02:33:03;;;;;;;170.33;158.10;;;;;;;;;;4994196;28;21041;-68
2021/08/20 02:35:32;;;;;;;164.13;152.43;;;;;;;;;;4994150;28;20450;-71
2021/08/20 02:37:59;;;;;;;160.23;148.83;;;;;;;;;;4994112;28;20477;-70
2021/08/20 02:40:26;;;;;;;161.43;150.03;;;;;;;;;;4994166;28;20458;-70
2021/08/20 02:42:53;;;;;;;148.30;137.50;;;;;;;;;;4994458;28;20451;-70
2021/08/20 02:45:20;;;;;;;144.63;134.40;;;;;;;;;;4994210;28;20446;-71
2021/08/20 02:47:47;;;;;;;142.50;132.17;;;;;;;;;;4994381;28;20482;-70
2021/08/20 02:50:15;;;;;;;134.87;125.27;;;;;;;;;;4994613;28;20453;-71
2021/08/20 02:52:43;;;;;;;131.67;121.97;;;;;;;;;;4993857;28;20945;-72
2021/08/20 02:55:11;;;;;;;129.60;120.30;;;;;;;;;;4994520;28;20450;-71
2021/08/20 02:57:38;;;;;;;120.40;111.60;;;;;;;;;;4994304;28;20442;-70
2021/08/20 03:00:06;;;;;;;122.70;113.90;;;;;;;;;;4994443;28;20942;-72
2021/08/20 03:02:33;;;;;;;117.60;109.00;;;;;;;;;;4993623;28;20451;-71
2021/08/20 03:05:00;;;;;;;116.43;107.93;;;;;;;;;;4993921;28;20972;-70
2021/08/20 03:07:27;;;;;;;126.57;117.97;;;;;;;;;;4993981;28;20455;-71
2021/08/20 03:09:56;;;;;;;116.13;108.10;;;;;;;;;;4994129;28;20450;-71
2021/08/20 03:12:24;;;;;;;116.83;108.53;;;;;;;;;;4993716;28;20458;-71
2021/08/20 03:14:51;;;;;;;124.80;116.43;;;;;;;;;;4993828;28;20513;-71
2021/08/20 03:17:19;;;;;;;117.33;109.23;;;;;;;;;;4993580;28;20954;-72
2021/08/20 03:19:46;;;;;;;116.57;108.63;;;;;;;;;;4993589;28;20473;-71
2021/08/20 03:22:13;;;;;;;119.80;111.50;;;;;;;;;;4993471;28;20520;-71
2021/08/20 03:24:41;;;;;;;109.87;101.97;;;;;;;;;;4993381;28;20460;-71
2021/08/20 03:27:09;;;;;;;112.27;104.20;;;;;;;;;;4992862;28;20957;-71
2021/08/20 03:29:36;;;;;;;109.90;102.40;;;;;;;;;;4993145;28;20588;-71
2021/08/20 03:32:04;;;;;;;109.23;101.50;;;;;;;;;;4992956;28;20826;-71
2021/08/20 03:34:31;;;;;;;109.10;101.17;;;;;;;;;;4993179;28;20458;-70
2021/08/20 03:36:58;;;;;;;109.57;101.33;;;;;;;;;;4992940;28;20791;-71
2021/08/20 03:39:25;;;;;;;102.77;95.37;;;;;;;;;;4993346;28;20462;-70
2021/08/20 03:41:52;;;;;;;119.37;111.17;;;;;;;;;;4992773;28;20450;-71
2021/08/20 03:44:20;;;;;;;105.97;98.30;;;;;;;;;;4993185;28;20458;-70
2021/08/20 03:46:47;;;;;;;105.47;97.90;;;;;;;;;;4992879;28;20456;-70
2021/08/20 03:49:15;;;;;;;102.60;95.07;;;;;;;;;;4992714;28;20486;-71
2021/08/20 03:51:42;;;;;;;106.40;99.10;;;;;;;;;;4993201;28;20464;-70
2021/08/20 03:54:10;;;;;;;102.50;95.20;;;;;;;;;;4993112;28;20822;-71
2021/08/20 03:56:38;;;;;;;102.07;94.70;;;;;;;;;;4992779;28;20946;-70
2021/08/20 03:59:05;;;;;;;106.50;98.90;;;;;;;;;;5016202;22;20517;-67
2021/08/20 04:01:33;;;;;;;106.53;99.03;;;;;;;;;;4989295;28;20834;-68
2021/08/20 04:04:00;;;;;;;105.57;97.20;;;;;;;;;;5000531;28;20447;-68
2021/08/20 04:06:27;;;;;;;104.60;96.90;;;;;;;;;;4992289;28;20945;-68
2021/08/20 04:08:55;;;;;;;96.63;89.13;;;;;;;;;;4992616;28;20497;-68
2021/08/20 04:11:22;;;;;;;99.47;91.73;;;;;;;;;;4992505;28;20473;-68
2021/08/20 04:13:49;;;;;;;107.53;99.90;;;;;;;;;;4992307;28;20451;-68
2021/08/20 04:16:16;;;;;;;98.70;91.00;;;;;;;;;;4992415;28;20446;-76
2021/08/20 04:18:44;;;;;;;95.10;87.53;;;;;;;;;;4992266;28;20845;-70
2021/08/20 04:21:12;;;;;;;91.57;84.43;;;;;;;;;;4992136;28;20450;-72
2021/08/20 04:23:39;;;;;;;98.77;90.97;;;;;;;;;;4992251;28;20960;-68
2021/08/20 04:26:06;;;;;;;94.83;87.27;;;;;;;;;;4992327;28;20473;-69
2021/08/20 04:28:33;;;;;;;95.77;87.93;;;;;;;;;;4992015;28;20483;-72
2021/08/20 04:31:00;;;;;;;92.30;84.70;;;;;;;;;;4992349;28;20458;-75
2021/08/20 04:33:28;;;;;;;93.57;85.87;;;;;;;;;;4991692;28;20446;-68
2021/08/20 04:35:56;;;;;;;95.87;87.87;;;;;;;;;;4992236;28;20446;-68
2021/08/20 04:38:23;;;;;;;96.13;88.73;;;;;;;;;;4992315;28;20456;-68
2021/08/20 04:40:50;;;;;;;96.33;88.20;;;;;;;;;;4991793;28;20454;-76
2021/08/20 04:43:18;;;;;;;98.10;90.20;;;;;;;;;;4992291;28;20462;-71
2021/08/20 04:45:46;;;;;;;96.23;88.50;;;;;;;;;;4992649;28;20544;-76
2021/08/20 04:48:13;;;;;;;97.77;89.80;;;;;;;;;;4991877;28;20931;-71
2021/08/20 04:50:40;;;;;;;96.20;88.60;;;;;;;;;;4992305;28;20950;-72
2021/08/20 04:53:09;;;;;;;96.90;89.40;;;;;;;;;;4992189;28;20545;-74
2021/08/20 04:55:36;;;;;;;96.57;88.67;;;;;;;;;;4992266;28;20458;-72
2021/08/20 04:58:03;;;;;;;93.03;85.10;;;;;;;;;;4992230;28;20458;-70
2021/08/20 05:00:30;;;;;;;92.63;84.83;;;;;;;;;;4991286;28;21005;-68
2021/08/20 05:02:57;;;;;;;99.43;91.40;;;;;;;;;;4992375;28;20458;-71
2021/08/20 05:05:27;;;;;;;100.50;92.13;;;;;;;;;;4992090;28;20446;-68
2021/08/20 05:07:54;;;;;;;104.47;96.03;;;;;;;;;;4992322;28;20458;-71
2021/08/20 05:10:22;;;;;;;104.37;96.13;;;;;;;;;;4991903;28;20498;-73
2021/08/20 05:12:49;;;;;;;103.33;95.03;;;;;;;;;;4991840;28;20805;-68
2021/08/20 05:15:17;;;;;;;195.10;181.57;;;;;;;;;;4992422;28;20446;-71
2021/08/20 05:17:44;;;;;;;113.50;105.30;;;;;;;;;;4992207;28;20512;-69
2021/08/20 05:20:13;;;;;;;112.00;102.90;;;;;;;;;;4991819;28;20470;-68
2021/08/20 05:22:43;;;;;;;109.37;100.83;;;;;;;;;;4991732;28;20458;-72
2021/08/20 05:25:11;;;;;;;108.50;100.07;;;;;;;;;;4991651;28;20941;-72
2021/08/20 05:27:39;;;;;;;108.97;100.10;;;;;;;;;;4992069;28;20483;-68
2021/08/20 05:30:07;;;;;;;108.30;100.20;;;;;;;;;;4991428;28;21060;-70
2021/08/20 05:32:34;;;;;;;124.87;115.80;;;;;;;;;;4991721;28;20542;-71
2021/08/20 05:35:02;;;;;;;110.90;102.20;;;;;;;;;;4991748;28;20463;-72
2021/08/20 05:37:29;;;;;;;113.37;104.20;;;;;;;;;;4991864;28;20454;-67
2021/08/20 05:39:56;;;;;;;122.83;113.93;;;;;;;;;;4991795;28;20466;-67
2021/08/20 05:42:23;;;;;;;116.20;107.10;;;;;;;;;;4991540;28;21047;-68
2021/08/20 05:44:51;;;;;;;115.03;105.90;;;;;;;;;;4991455;28;20460;-69
2021/08/20 05:47:18;;;;;;;117.10;108.30;;;;;;;;;;4994258;28;20461;-67
2021/08/20 05:49:46;;;;;;;114.80;106.20;;;;;;;;;;4994968;28;20492;-70
2021/08/20 05:52:13;;;;;;;114.30;105.83;;;;;;;;;;4995236;28;20813;-68
2021/08/20 05:54:40;;;;;;;120.30;111.50;;;;;;;;;;4995305;28;20450;-69
2021/08/20 05:57:07;;;;;;;120.53;112.20;;;;;;;;;;4995186;28;20461;-68
2021/08/20 05:59:34;;;;;;;118.27;109.87;;;;;;;;;;4994635;28;20485;-69
2021/08/20 06:02:03;;;;;;;129.30;120.20;;;;;;;;;;4995108;28;20454;-68
2021/08/20 06:04:30;;;;;;;126.57;117.90;;;;;;;;;;4994513;28;20455;-68
2021/08/20 06:06:57;;;;;;;193.27;181.17;;;;;;;;;;4995562;28;20450;-68
2021/08/20 06:09:24;;;;;;;163.20;152.00;;;;;;;;;;4995000;28;20501;-68
2021/08/20 06:11:51;;;;;;;182.87;170.77;;;;;;;;;;4994321;28;20450;-68
2021/08/20 06:14:18;;;;;;;170.40;159.43;;;;;;;;;;4994933;28;20712;-68
2021/08/20 06:16:45;;;;;;;126.00;117.20;;;;;;;;;;4994229;28;20446;-68
2021/08/20 06:19:14;;;;;;;215.67;203.43;;;;;;;;;;4994632;28;20470;-70
2021/08/20 06:21:41;;;;;;;128.80;119.53;;;;;;;;;;4994602;28;20450;-68
2021/08/20 06:24:08;;;;;;;132.50;123.40;;;;;;;;;;4994831;28;20457;-68
2021/08/20 06:26:35;;;;;;;135.90;126.63;;;;;;;;;;4994314;28;20458;-68
2021/08/20 06:29:02;;;;;;;139.30;129.50;;;;;;;;;;4994727;28;20489;-67
2021/08/20 06:31:29;;;;;;;134.03;124.53;;;;;;;;;;4994330;28;20459;-69
2021/08/20 06:33:58;;;;;;;131.60;123.10;;;;;;;;;;4994638;28;20458;-68
2021/08/20 06:36:26;;;;;;;118.67;110.60;;;;;;;;;;4994438;28;20545;-69
2021/08/20 06:38:53;;;;;;;118.37;110.20;;;;;;;;;;4994024;28;20495;-68
2021/08/20 06:41:20;;;;;;;124.17;115.77;;;;;;;;;;4994363;28;20451;-68
2021/08/20 06:43:48;;;;;;;159.20;149.50;;;;;;;;;;4994217;28;20450;-69
2021/08/20 06:46:15;;;;;;;160.47;150.47;;;;;;;;;;4993981;28;20938;-68
2021/08/20 06:48:42;;;;;;;162.30;152.50;;;;;;;;;;4994065;28;20476;-68
2021/08/20 06:51:09;;;;;;;124.93;116.87;;;;;;;;;;4994076;28;20481;-68
2021/08/20 06:53:37;;;;;;;184.10;173.40;;;;;;;;;;4994072;28;20446;-68
2021/08/20 06:56:05;;;;;;;204.73;193.30;;;;;;;;;;4994380;28;20450;-68
2021/08/20 06:58:32;;;;;;;116.63;109.07;;;;;;;;;;4993566;28;20825;-69
2021/08/20 07:00:59;;;;;;;123.57;115.70;;;;;;;;;;4994423;28;20443;-70
2021/08/20 07:03:26;;;;;;;123.03;115.40;;;;;;;;;;4993829;28;20458;-68
2021/08/20 07:05:53;;;;;;;125.03;116.73;;;;;;;;;;4993936;28;20458;-67
2021/08/20 07:08:20;;;;;;;115.93;108.33;;;;;;;;;;4993767;28;20451;-68
2021/08/20 07:10:49;;;;;;;123.20;115.20;;;;;;;;;;4993618;28;20493;-70
2021/08/20 07:13:16;;;;;;;122.07;114.07;;;;;;;;;;4993467;28;20458;-67
2021/08/20 07:15:44;;;;;;;117.27;109.67;;;;;;;;;;4993696;28;20447;-68
2021/08/20 07:18:11;;;;;;;123.70;115.90;;;;;;;;;;4993262;28;20934;-69
2021/08/20 07:20:38;;;;;;;120.00;112.10;;;;;;;;;;4993376;28;20470;-69
2021/08/20 07:23:05;;;;;;;123.73;115.43;;;;;;;;;;4993249;28;20464;-68
2021/08/20 07:25:32;;;;;;;124.17;115.97;;;;;;;;;;4993646;28;20796;-69
2021/08/20 07:28:01;;;;;;;125.93;117.63;;;;;;;;;;4993264;28;20845;-68
2021/08/20 07:30:29;;;;;;;118.73;110.70;;;;;;;;;;4992942;28;20867;-68
2021/08/20 07:32:56;;;;;;;119.27;111.10;;;;;;;;;;4993374;28;20446;-68
2021/08/20 07:35:23;;;;;;;118.17;110.27;;;;;;;;;;4992928;28;20461;-69
2021/08/20 07:37:50;;;;;;;111.47;104.07;;;;;;;;;;4993002;28;20456;-68
2021/08/20 07:40:17;;;;;;;116.20;108.77;;;;;;;;;;4992822;28;20470;-68
2021/08/20 07:42:44;;;;;;;111.03;104.03;;;;;;;;;;4992969;28;20451;-68
2021/08/20 07:45:13;;;;;;;110.87;103.87;;;;;;;;;;4993291;28;20450;-68
2021/08/20 07:47:47;;;;;;;111.67;104.53;;;;;;;;;;4993060;28;20482;-68
2021/08/20 07:50:14;;;;;;;115.27;107.63;;;;;;;;;;4992399;28;20489;-68
2021/08/20 07:52:41;;;;;;;112.07;104.77;;;;;;;;;;4992729;28;20464;-68
2021/08/20 07:55:09;;;;;;;108.63;101.73;;;;;;;;;;4993027;28;20461;-69
2021/08/20 07:57:45;;;;;;;119.10;111.60;;;;;;;;;;4992894;28;20465;-68
2021/08/20 08:00:14;;;;;;;124.07;115.90;;;;;;;;;;4991985;28;20854;-67
2021/08/20 08:02:41;;;;;;;113.00;105.10;;;;;;;;;;4992859;28;20871;-68
2021/08/20 08:05:09;;;;;;;111.43;103.53;;;;;;;;;;4992591;28;20866;-69
2021/08/20 08:07:36;;;;;;;118.60;110.30;;;;;;;;;;4992663;28;20454;-68
2021/08/20 08:10:03;;;;;;;109.90;102.30;;;;;;;;;;4991952;28;20490;-68
2021/08/20 08:12:30;;;;;;;109.33;101.93;;;;;;;;;;4992583;28;20446;-68
2021/08/20 08:14:57;;;;;;;109.27;102.07;;;;;;;;;;4992482;28;20455;-69
2021/08/20 08:17:26;;;;;;;117.53;109.93;;;;;;;;;;4992648;28;20450;-68
2021/08/20 08:19:53;;;;;;;116.90;109.10;;;;;;;;;;4992125;28;21076;-68
2021/08/20 08:22:20;;;;;;;134.50;126.00;;;;;;;;;;4992130;28;20450;-68
2021/08/20 08:24:47;;;;;;;123.40;115.10;;;;;;;;;;4992639;28;20447;-70
2021/08/20 08:27:14;;;;;;;124.17;115.93;;;;;;;;;;4992079;28;20450;-68
2021/08/20 08:29:41;;;;;;;118.23;109.73;;;;;;;;;;4992235;28;20486;-69
2021/08/20 08:32:09;;;;;;;126.07;118.07;;;;;;;;;;4991713;28;20454;-68
2021/08/20 08:34:38;;;;;;;138.57;129.53;;;;;;;;;;4992375;28;20450;-68
2021/08/20 08:37:05;;;;;;;132.13;123.53;;;;;;;;;;4992351;28;20447;-68
2021/08/20 08:39:32;;;;;;;218.27;205.87;;;;;;;;;;4992379;28;20476;-68
2021/08/20 08:42:00;;;;;;;225.63;213.13;;;;;;;;;;4991834;28;20941;-68
2021/08/20 08:44:27;;;;;;;235.83;223.13;;;;;;;;;;4992033;28;20477;-67
2021/08/20 08:46:54;;;;;;;253.70;239.93;;;;;;;;;;4991758;28;20454;-69
2021/08/20 08:49:22;;;;;;;273.03;258.33;;;;;;;;;;4991696;28;20474;-67
2021/08/20 08:51:51;;;;;;;277.80;262.43;;;;;;;;;;4992176;28;20447;-68
2021/08/20 08:54:18;;;;;;;273.83;258.63;;;;;;;;;;4992162;28;20826;-69
2021/08/20 08:56:46;;;;;;;256.67;242.10;;;;;;;;;;4992135;28;20456;-68
2021/08/20 08:59:13;;;;;;;258.40;243.73;;;;;;;;;;4991762;28;20491;-68
2021/08/20 09:01:42;;;;;;;262.10;247.17;;;;;;;;;;4991913;28;20446;-68
2021/08/20 09:04:11;;;;;;;253.57;239.13;;;;;;;;;;4991992;28;20458;-68
2021/08/20 09:06:38;;;;;;;259.93;245.10;;;;;;;;;;4991934;28;20454;-68
2021/08/20 09:09:07;;;;;;;269.13;253.80;;;;;;;;;;4992009;28;20480;-68
2021/08/20 09:11:34;;;;;;;265.57;250.33;;;;;;;;;;4991833;28;20482;-67
2021/08/20 09:14:01;;;;;;;259.97;245.17;;;;;;;;;;4992043;28;20481;-68
2021/08/20 09:16:36;;;;;;;273.17;257.17;;;;;;;;;;4991820;28;20447;-69
2021/08/20 09:19:12;;;;;;;274.87;259.13;;;;;;;;;;4992339;28;20476;-68
2021/08/20 09:21:39;;;;;;;155.03;144.13;;;;;;;;;;4995571;28;20453;-68
2021/08/20 09:24:29;;;;;;;221.63;207.60;;;;;;;;;;4995934;28;20818;-67
2021/08/20 09:26:56;;;;;;;154.20;143.00;;;;;;;;;;4995376;28;20450;-68
2021/08/20 09:29:23;;;;;;;285.30;268.10;;;;;;;;;;4995625;28;20480;-68
2021/08/20 09:31:51;;;;;;;300.50;282.20;;;;;;;;;;4994957;28;20843;-68
2021/08/20 09:34:18;;;;;;;335.57;314.47;;;;;;;;;;4995725;28;20450;-67
2021/08/20 09:36:45;;;;;;;342.63;321.43;;;;;;;;;;4995488;28;20449;-68
2021/08/20 09:39:25;;;;;;;330.40;308.70;;;;;;;;;;4995174;28;20925;-68
2021/08/20 09:42:11;;;;;;;367.57;344.07;;;;;;;;;;4994998;28;20442;-68
2021/08/20 09:44:38;;;;;;;364.47;341.70;;;;;;;;;;4995482;28;20941;-68
2021/08/20 09:47:06;;;;;;;354.63;332.30;;;;;;;;;;4995134;28;20457;-70
2021/08/20 09:49:53;;;;;;;404.37;376.67;;;;;;;;;;4995424;28;20470;-67
2021/08/20 09:52:26;;;;;;;389.33;364.67;;;;;;;;;;4996653;28;20446;-68
2021/08/20 09:54:55;;;;;;;368.57;346.40;;;;;;;;;;4995644;28;20442;-70
2021/08/20 09:57:22;;;;;;;338.90;318.33;;;;;;;;;;4995689;28;20490;-68
2021/08/20 09:59:50;;;;;;;199.27;185.83;;;;;;;;;;5025007;23;20889;-68
2021/08/20 10:02:19;;;;;;;274.73;258.20;;;;;;;;;;5012544;28;20445;-65
2021/08/20 10:04:47;;;;;;;236.57;221.67;;;;;;;;;;5014209;28;20448;-65
2021/08/20 10:07:18;;;;;;;245.30;230.53;;;;;;;;;;5014059;28;20452;-65
2021/08/20 10:09:46;;;;;;;206.03;192.63;;;;;;;;;;5014077;28;20481;-65
2021/08/20 10:12:18;;;;;;;194.97;182.37;;;;;;;;;;5013844;28;20957;-65
2021/08/20 10:14:46;;;;;;;191.20;178.70;;;;;;;;;;5014300;28;20538;-65
2021/08/20 10:17:13;;;;;;;168.83;157.30;;;;;;;;;;5014360;28;20449;-65
2021/08/20 10:19:42;;;;;;;153.33;142.43;;;;;;;;;;5014348;28;20480;-66
2021/08/20 10:22:09;;;;;;;166.63;155.33;;;;;;;;;;5013971;28;20446;-66
2021/08/20 10:24:36;;;;;;;180.00;167.90;;;;;;;;;;5014126;28;20453;-65
2021/08/20 10:27:05;;;;;;;119.23;110.20;;;;;;;;;;5014137;28;20472;-65
2021/08/20 10:29:35;;;;;;;115.10;106.70;;;;;;;;;;5014071;28;20532;-68
2021/08/20 10:32:04;;;;;;;111.00;102.80;;;;;;;;;;5013420;28;20499;-67
2021/08/20 10:34:34;;;;;;;112.83;104.37;;;;;;;;;;5014272;28;20445;-66
2021/08/20 10:37:09;;;;;;;111.90;103.90;;;;;;;;;;5013722;28;21024;-65
2021/08/20 10:39:36;;;;;;;120.57;112.47;;;;;;;;;;5014034;28;20473;-65
2021/08/20 10:42:05;;;;;;;125.73;117.17;;;;;;;;;;5013757;28;20445;-65
2021/08/20 10:44:37;;;;;;;127.53;118.53;;;;;;;;;;5013707;28;20953;-66
2021/08/20 10:47:04;;;;;;;142.10;132.60;;;;;;;;;;5013909;28;20452;-65
2021/08/20 10:49:45;;;;;;;235.10;221.50;;;;;;;;;;5013502;28;20465;-66
2021/08/20 10:52:31;;;;;;;286.73;269.27;;;;;;;;;;5013470;28;20489;-66
2021/08/20 10:55:21;;;;;;;388.37;362.07;;;;;;;;;;5013803;28;20456;-65
2021/08/20 10:58:06;;;;;;;405.63;377.70;;;;;;;;;;5013838;28;20434;-66
2021/08/20 11:00:35;;;;;;;358.67;335.40;;;;;;;;;;5012871;28;20852;-66
2021/08/20 11:03:03;;;;;;;365.77;341.97;;;;;;;;;;5013511;28;20456;-66
2021/08/20 11:05:43;;;;;;;390.67;364.17;;;;;;;;;;5013615;28;20445;-66
2021/08/20 11:08:43;;;;;;;397.33;369.83;;;;;;;;;;5013456;28;20822;-66
2021/08/20 11:11:29;;;;;;;381.43;355.67;;;;;;;;;;5013100;28;20485;-65
2021/08/20 11:14:17;;;;;;;428.07;396.57;;;;;;;;;;5013076;28;20456;-65
2021/08/20 11:16:46;;;;;;;474.13;438.83;;;;;;;;;;5012963;28;20956;-65
2021/08/20 11:19:33;;;;;;;443.13;412.13;;;;;;;;;;5013176;28;20477;-65
2021/08/20 11:22:12;;;;;;;450.53;418.43;;;;;;;;;;5012668;28;20445;-63
2021/08/20 11:24:39;;;;;;;428.80;398.60;;;;;;;;;;5013251;28;20520;-62
2021/08/20 11:27:12;;;;;;;387.90;362.43;;;;;;;;;;5013202;28;20437;-65
2021/08/20 11:29:43;;;;;;;369.20;348.30;;;;;;;;;;5013301;28;20833;-62
2021/08/20 11:32:11;;;;;;;341.80;321.97;;;;;;;;;;5013003;28;20481;-63
2021/08/20 11:34:51;;;;;;;341.30;322.57;;;;;;;;;;5012968;28;20460;-62
2021/08/20 11:37:18;;;;;;;328.30;311.63;;;;;;;;;;5012769;28;20479;-62
2021/08/20 11:40:00;;;;;;;327.03;309.13;;;;;;;;;;5012383;28;20472;-62
2021/08/20 11:42:27;;;;;;;349.80;332.50;;;;;;;;;;5012977;28;20432;-62
2021/08/20 11:44:54;;;;;;;318.80;301.37;;;;;;;;;;5012556;28;20449;-63
2021/08/20 11:47:23;;;;;;;341.10;321.60;;;;;;;;;;5012581;28;20445;-62
2021/08/20 11:49:50;;;;;;;343.07;322.57;;;;;;;;;;5012629;28;20482;-65
2021/08/20 11:52:17;;;;;;;356.10;334.90;;;;;;;;;;5002935;28;20477;-65
2021/08/20 11:54:44;;;;;;;375.80;352.60;;;;;;;;;;5004046;28;20819;-64
2021/08/20 11:57:11;;;;;;;387.50;363.10;;;;;;;;;;5000675;28;20457;-64
2021/08/20 11:59:38;;;;;;;324.00;306.70;;;;;;;;;;4992256;28;21120;-65
2021/08/20 12:02:06;;;;;;;363.57;342.17;;;;;;;;;;4992881;28;20453;-64
2021/08/20 12:04:37;;;;;;;311.80;293.93;;;;;;;;;;4992438;28;20450;-64
2021/08/20 12:07:04;;;;;;;416.30;389.73;;;;;;;;;;4992567;28;20946;-64
2021/08/20 12:09:32;;;;;;;318.43;301.00;;;;;;;;;;4992908;28;20473;-65
2021/08/20 12:12:00;;;;;;;354.50;335.43;;;;;;;;;;4992594;28;20494;-64
2021/08/20 12:14:28;;;;;;;350.27;331.10;;;;;;;;;;4992896;28;20457;-65
2021/08/20 12:16:56;;;;;;;370.07;349.70;;;;;;;;;;4992564;28;20458;-65
2021/08/20 12:19:24;;;;;;;389.13;368.00;;;;;;;;;;4992266;28;20470;-64
2021/08/20 12:21:54;;;;;;;383.30;364.27;;;;;;;;;;4992125;28;20967;-64
2021/08/20 12:24:32;;;;;;;365.87;347.57;;;;;;;;;;4992652;28;20452;-64
2021/08/20 12:27:15;;;;;;;360.23;342.47;;;;;;;;;;4992328;28;20942;-64
2021/08/20 12:29:42;;;;;;;352.80;335.30;;;;;;;;;;4992132;28;20476;-64
2021/08/20 12:32:09;;;;;;;362.70;344.13;;;;;;;;;;4991940;28;20490;-64
2021/08/20 12:34:41;;;;;;;320.47;301.77;;;;;;;;;;4992519;28;20455;-64
2021/08/20 12:37:17;;;;;;;301.07;283.33;;;;;;;;;;4992552;28;20441;-64
2021/08/20 12:39:44;;;;;;;316.63;298.07;;;;;;;;;;4992302;28;20564;-64
2021/08/20 12:42:24;;;;;;;328.97;310.80;;;;;;;;;;4992003;28;20468;-65
2021/08/20 12:45:06;;;;;;;304.33;286.50;;;;;;;;;;4992511;28;20458;-64
2021/08/20 12:47:33;;;;;;;331.80;315.00;;;;;;;;;;4990186;28;20468;-64
2021/08/20 12:50:01;;;;;;;304.60;286.47;;;;;;;;;;4992368;28;20901;-64
2021/08/20 12:52:30;;;;;;;295.47;277.33;;;;;;;;;;4991990;28;20482;-64
2021/08/20 12:54:57;;;;;;;332.20;314.10;;;;;;;;;;4992985;28;20460;-64
2021/08/20 12:57:24;;;;;;;358.20;336.80;;;;;;;;;;4996196;28;20460;-65
2021/08/20 13:00:01;;;;;;;365.83;348.63;;;;;;;;;;4995837;28;20997;-64
2021/08/20 13:02:28;;;;;;;306.93;290.87;;;;;;;;;;4995855;28;20450;-64
2021/08/20 13:04:55;;;;;;;351.00;334.10;;;;;;;;;;4996411;28;20812;-64
2021/08/20 13:07:22;;;;;;;350.40;334.10;;;;;;;;;;4995512;28;20450;-64
2021/08/20 13:09:51;;;;;;;371.23;353.73;;;;;;;;;;4995705;28;20481;-64
2021/08/20 13:12:18;;;;;;;363.37;347.13;;;;;;;;;;4995727;28;20492;-64
2021/08/20 13:14:45;;;;;;;359.60;343.00;;;;;;;;;;4995944;28;20461;-65
2021/08/20 13:17:12;;;;;;;345.67;330.17;;;;;;;;;;4995990;28;20454;-65
2021/08/20 13:19:39;;;;;;;355.37;339.37;;;;;;;;;;4995409;28;20482;-64
2021/08/20 13:22:06;;;;;;;321.77;306.03;;;;;;;;;;4995266;28;20485;-64
2021/08/20 13:24:33;;;;;;;353.57;337.07;;;;;;;;;;4996024;28;20447;-64
2021/08/20 13:27:02;;;;;;;359.60;342.50;;;;;;;;;;4995601;28;20454;-64
2021/08/20 13:29:29;;;;;;;349.10;332.60;;;;;;;;;;4995327;28;21003;-65
2021/08/20 13:31:56;;;;;;;351.73;334.83;;;;;;;;;;4995543;28;20488;-64
2021/08/20 13:34:23;;;;;;;324.60;307.70;;;;;;;;;;4995458;28;20450;-64
2021/08/20 13:36:50;;;;;;;337.17;315.93;;;;;;;;;;4995578;28;20458;-64
2021/08/20 13:39:17;;;;;;;324.53;308.20;;;;;;;;;;4995822;28;20466;-64
2021/08/20 13:41:45;;;;;;;316.30;299.83;;;;;;;;;;4995192;28;20455;-64
2021/08/20 13:44:13;;;;;;;314.00;297.60;;;;;;;;;;4995303;28;20971;-64
2021/08/20 13:46:40;;;;;;;326.17;309.23;;;;;;;;;;4995572;28;20450;-65
2021/08/20 13:49:08;;;;;;;328.57;311.77;;;;;;;;;;4995270;28;20450;-65
2021/08/20 13:51:36;;;;;;;335.47;318.07;;;;;;;;;;4994527;28;20577;-64
2021/08/20 13:54:05;;;;;;;329.90;312.70;;;;;;;;;;4995394;28;20461;-65
2021/08/20 13:56:32;;;;;;;315.97;298.97;;;;;;;;;;4995139;28;20450;-64
2021/08/20 13:59:00;;;;;;;338.50;320.70;;;;;;;;;;4994819;28;20949;-65
2021/08/20 14:01:29;;;;;;;298.80;282.10;;;;;;;;;;4994332;28;20906;-64